sensor_id;sensor_type;location;lat;lon;timestamp;P1;durP1;ratioP1;P2;durP2;ratioP2
15944;SDS011;30172;48.832;8.732;2023-05-19T00:01:54;9.30;;;2.90;;
15944;SDS011;30172;48.832;8.732;2023-05-19T00:04:20;7.70;;;2.73;;
15944;SDS011;30172;48.832;8.732;2023-05-19T00:06:47;5.67;;;2.40;;
15944;SDS011;30172;48.832;8.732;2023-05-19T00:09:32;9.07;;;3.03;;
15944;SDS011;30172;48.832;8.732;2023-05-19T00:12:03;8.57;;;2.90;;
15944;SDS011;30172;48.832;8.732;2023-05-19T00:14:29;9.77;;;2.40;;
15944;SDS011;30172;48.832;8.732;2023-05-19T00:17:00;7.17;;;2.87;;
15944;SDS011;30172;48.832;8.732;2023-05-19T00:19:28;7.03;;;2.93;;
15944;SDS011;30172;48.832;8.732;2023-05-19T00:21:57;5.43;;;2.43;;
15944;SDS011;30172;48.832;8.732;2023-05-19T00:24:25;7.57;;;2.83;;
15944;SDS011;30172;48.832;8.732;2023-05-19T00:26:53;7.70;;;2.80;;
15944;SDS011;30172;48.832;8.732;2023-05-19T00:29:24;6.50;;;2.77;;
15944;SDS011;30172;48.832;8.732;2023-05-19T00:32:00;6.13;;;2.53;;
15944;SDS011;30172;48.832;8.732;2023-05-19T00:34:36;4.63;;;2.33;;
15944;SDS011;30172;48.832;8.732;2023-05-19T00:37:21;10.63;;;3.00;;
15944;SDS011;30172;48.832;8.732;2023-05-19T00:39:47;8.13;;;2.50;;
15944;SDS011;30172;48.832;8.732;2023-05-19T00:42:15;5.67;;;3.10;;
15944;SDS011;30172;48.832;8.732;2023-05-19T00:44:47;3.63;;;2.60;;
15944;SDS011;30172;48.832;8.732;2023-05-19T00:47:27;5.17;;;2.37;;
15944;SDS011;30172;48.832;8.732;2023-05-19T00:49:55;9.50;;;2.80;;
15944;SDS011;30172;48.832;8.732;2023-05-19T00:52:43;6.27;;;2.63;;
15944;SDS011;30172;48.832;8.732;2023-05-19T00:58:39;4.97;;;2.33;;
15944;SDS011;30172;48.832;8.732;2023-05-19T01:01:40;6.10;;;2.60;;
15944;SDS011;30172;48.832;8.732;2023-05-19T01:04:40;7.40;;;2.63;;
15944;SDS011;30172;48.832;8.732;2023-05-19T01:07:22;7.57;;;2.60;;
15944;SDS011;30172;48.832;8.732;2023-05-19T01:10:22;6.17;;;2.23;;
15944;SDS011;30172;48.832;8.732;2023-05-19T01:13:04;4.67;;;2.23;;
15944;SDS011;30172;48.832;8.732;2023-05-19T01:15:39;5.63;;;3.00;;
15944;SDS011;30172;48.832;8.732;2023-05-19T01:18:54;6.20;;;2.43;;
15944;SDS011;30172;48.832;8.732;2023-05-19T01:31:11;8.30;;;2.50;;
15944;SDS011;30172;48.832;8.732;2023-05-19T01:33:38;5.00;;;2.37;;
15944;SDS011;30172;48.832;8.732;2023-05-19T01:36:44;5.90;;;2.63;;
15944;SDS011;30172;48.832;8.732;2023-05-19T01:39:28;7.00;;;2.80;;
15944;SDS011;30172;48.832;8.732;2023-05-19T01:42:12;5.40;;;2.40;;
15944;SDS011;30172;48.832;8.732;2023-05-19T01:44:46;8.47;;;2.80;;
15944;SDS011;30172;48.832;8.732;2023-05-19T01:47:30;5.97;;;2.63;;
15944;SDS011;30172;48.832;8.732;2023-05-19T01:50:01;6.80;;;2.70;;
15944;SDS011;30172;48.832;8.732;2023-05-19T01:52:32;6.73;;;3.50;;
15944;SDS011;30172;48.832;8.732;2023-05-19T01:55:00;10.13;;;2.47;;
15944;SDS011;30172;48.832;8.732;2023-05-19T02:04:07;7.03;;;2.83;;
15944;SDS011;30172;48.832;8.732;2023-05-19T02:07:04;9.57;;;2.87;;
15944;SDS011;30172;48.832;8.732;2023-05-19T02:12:48;8.13;;;2.87;;
15944;SDS011;30172;48.832;8.732;2023-05-19T02:15:20;5.33;;;2.80;;
15944;SDS011;30172;48.832;8.732;2023-05-19T02:17:52;4.83;;;2.70;;
15944;SDS011;30172;48.832;8.732;2023-05-19T02:20:20;6.87;;;2.43;;
15944;SDS011;30172;48.832;8.732;2023-05-19T02:22:53;6.50;;;2.63;;
15944;SDS011;30172;48.832;8.732;2023-05-19T02:25:19;8.80;;;2.90;;
15944;SDS011;30172;48.832;8.732;2023-05-19T02:28:05;5.33;;;2.43;;
15944;SDS011;30172;48.832;8.732;2023-05-19T02:30:33;6.87;;;3.00;;
15944;SDS011;30172;48.832;8.732;2023-05-19T02:33:17;5.27;;;2.43;;
15944;SDS011;30172;48.832;8.732;2023-05-19T02:36:17;5.90;;;3.00;;
15944;SDS011;30172;48.832;8.732;2023-05-19T02:38:47;9.80;;;3.13;;
15944;SDS011;30172;48.832;8.732;2023-05-19T02:41:31;8.07;;;2.83;;
15944;SDS011;30172;48.832;8.732;2023-05-19T02:44:25;7.47;;;2.70;;
15944;SDS011;30172;48.832;8.732;2023-05-19T02:47:15;5.17;;;2.80;;
15944;SDS011;30172;48.832;8.732;2023-05-19T02:50:11;5.37;;;2.97;;
15944;SDS011;30172;48.832;8.732;2023-05-19T02:52:53;6.13;;;2.87;;
15944;SDS011;30172;48.832;8.732;2023-05-19T02:55:32;8.60;;;2.90;;
15944;SDS011;30172;48.832;8.732;2023-05-19T02:58:00;8.63;;;2.87;;
15944;SDS011;30172;48.832;8.732;2023-05-19T03:00:34;4.47;;;2.87;;
15944;SDS011;30172;48.832;8.732;2023-05-19T03:03:12;6.43;;;2.93;;
15944;SDS011;30172;48.832;8.732;2023-05-19T03:06:13;4.30;;;2.90;;
15944;SDS011;30172;48.832;8.732;2023-05-19T03:12:40;4.13;;;2.63;;
15944;SDS011;30172;48.832;8.732;2023-05-19T03:15:31;5.00;;;3.27;;
15944;SDS011;30172;48.832;8.732;2023-05-19T03:18:13;3.93;;;2.63;;
15944;SDS011;30172;48.832;8.732;2023-05-19T03:20:41;7.73;;;3.00;;
15944;SDS011;30172;48.832;8.732;2023-05-19T03:23:20;5.73;;;2.80;;
15944;SDS011;30172;48.832;8.732;2023-05-19T03:25:57;8.20;;;2.87;;
15944;SDS011;30172;48.832;8.732;2023-05-19T03:28:37;5.53;;;3.37;;
15944;SDS011;30172;48.832;8.732;2023-05-19T03:31:18;6.33;;;2.87;;
15944;SDS011;30172;48.832;8.732;2023-05-19T03:34:15;9.00;;;2.83;;
15944;SDS011;30172;48.832;8.732;2023-05-19T03:36:57;6.57;;;3.00;;
15944;SDS011;30172;48.832;8.732;2023-05-19T03:39:44;7.60;;;3.00;;
15944;SDS011;30172;48.832;8.732;2023-05-19T03:45:47;6.83;;;3.10;;
15944;SDS011;30172;48.832;8.732;2023-05-19T03:48:57;8.87;;;3.07;;
15944;SDS011;30172;48.832;8.732;2023-05-19T03:51:42;4.60;;;2.83;;
15944;SDS011;30172;48.832;8.732;2023-05-19T03:54:25;10.67;;;3.40;;
15944;SDS011;30172;48.832;8.732;2023-05-19T03:57:00;8.67;;;3.63;;
15944;SDS011;30172;48.832;8.732;2023-05-19T03:59:26;5.50;;;2.70;;
15944;SDS011;30172;48.832;8.732;2023-05-19T04:08:11;6.10;;;2.80;;
15944;SDS011;30172;48.832;8.732;2023-05-19T04:14:08;5.33;;;2.70;;
15944;SDS011;30172;48.832;8.732;2023-05-19T04:16:54;5.17;;;2.90;;
15944;SDS011;30172;48.832;8.732;2023-05-19T04:19:53;7.00;;;2.87;;
15944;SDS011;30172;48.832;8.732;2023-05-19T04:22:55;5.70;;;3.03;;
15944;SDS011;30172;48.832;8.732;2023-05-19T04:25:33;5.43;;;2.80;;
15944;SDS011;30172;48.832;8.732;2023-05-19T04:28:31;7.07;;;3.20;;
15944;SDS011;30172;48.832;8.732;2023-05-19T04:31:18;7.77;;;3.00;;
15944;SDS011;30172;48.832;8.732;2023-05-19T04:34:00;6.20;;;2.57;;
15944;SDS011;30172;48.832;8.732;2023-05-19T04:36:27;8.03;;;3.53;;
15944;SDS011;30172;48.832;8.732;2023-05-19T04:39:14;6.07;;;2.87;;
15944;SDS011;30172;48.832;8.732;2023-05-19T04:41:42;8.70;;;3.33;;
15944;SDS011;30172;48.832;8.732;2023-05-19T04:44:11;8.20;;;3.10;;
15944;SDS011;30172;48.832;8.732;2023-05-19T04:46:50;9.20;;;2.80;;
15944;SDS011;30172;48.832;8.732;2023-05-19T04:49:18;4.10;;;2.67;;
15944;SDS011;30172;48.832;8.732;2023-05-19T04:51:50;9.67;;;3.40;;
15944;SDS011;30172;48.832;8.732;2023-05-19T04:54:20;7.77;;;2.90;;
15944;SDS011;30172;48.832;8.732;2023-05-19T04:56:48;6.10;;;2.50;;
15944;SDS011;30172;48.832;8.732;2023-05-19T04:59:19;4.40;;;3.10;;
15944;SDS011;30172;48.832;8.732;2023-05-19T05:01:50;5.07;;;2.53;;
15944;SDS011;30172;48.832;8.732;2023-05-19T05:04:15;8.50;;;3.20;;
15944;SDS011;30172;48.832;8.732;2023-05-19T05:06:43;6.30;;;2.80;;
15944;SDS011;30172;48.832;8.732;2023-05-19T05:09:15;11.33;;;2.97;;
15944;SDS011;30172;48.832;8.732;2023-05-19T05:11:47;4.87;;;2.53;;
15944;SDS011;30172;48.832;8.732;2023-05-19T05:14:22;6.47;;;2.87;;
15944;SDS011;30172;48.832;8.732;2023-05-19T05:16:50;5.93;;;2.60;;
15944;SDS011;30172;48.832;8.732;2023-05-19T05:19:21;5.27;;;2.70;;
15944;SDS011;30172;48.832;8.732;2023-05-19T05:21:47;5.27;;;2.57;;
15944;SDS011;30172;48.832;8.732;2023-05-19T05:24:13;6.27;;;2.80;;
15944;SDS011;30172;48.832;8.732;2023-05-19T05:26:38;5.80;;;2.90;;
15944;SDS011;30172;48.832;8.732;2023-05-19T05:29:04;5.30;;;2.80;;
15944;SDS011;30172;48.832;8.732;2023-05-19T05:31:30;4.33;;;3.07;;
15944;SDS011;30172;48.832;8.732;2023-05-19T05:34:01;8.77;;;3.33;;
15944;SDS011;30172;48.832;8.732;2023-05-19T05:36:26;7.27;;;2.93;;
15944;SDS011;30172;48.832;8.732;2023-05-19T05:38:59;7.10;;;3.10;;
15944;SDS011;30172;48.832;8.732;2023-05-19T05:45:08;4.53;;;2.73;;
15944;SDS011;30172;48.832;8.732;2023-05-19T05:47:33;6.83;;;3.33;;
15944;SDS011;30172;48.832;8.732;2023-05-19T05:50:02;3.80;;;2.53;;
15944;SDS011;30172;48.832;8.732;2023-05-19T05:52:28;10.67;;;3.40;;
15944;SDS011;30172;48.832;8.732;2023-05-19T05:55:12;7.03;;;3.27;;
15944;SDS011;30172;48.832;8.732;2023-05-19T05:57:38;9.43;;;2.80;;
15944;SDS011;30172;48.832;8.732;2023-05-19T06:00:06;3.93;;;2.80;;
15944;SDS011;30172;48.832;8.732;2023-05-19T06:02:39;5.47;;;2.60;;
15944;SDS011;30172;48.832;8.732;2023-05-19T06:08:03;5.37;;;3.00;;
15944;SDS011;30172;48.832;8.732;2023-05-19T06:10:31;5.53;;;3.03;;
15944;SDS011;30172;48.832;8.732;2023-05-19T06:12:56;6.73;;;3.33;;
15944;SDS011;30172;48.832;8.732;2023-05-19T06:15:21;7.33;;;2.90;;
15944;SDS011;30172;48.832;8.732;2023-05-19T06:17:47;8.13;;;2.63;;
15944;SDS011;30172;48.832;8.732;2023-05-19T06:20:15;6.63;;;3.20;;
15944;SDS011;30172;48.832;8.732;2023-05-19T06:22:43;4.47;;;2.90;;
15944;SDS011;30172;48.832;8.732;2023-05-19T06:25:12;5.27;;;2.73;;
15944;SDS011;30172;48.832;8.732;2023-05-19T06:27:37;5.00;;;3.10;;
15944;SDS011;30172;48.832;8.732;2023-05-19T06:30:03;4.97;;;2.70;;
15944;SDS011;30172;48.832;8.732;2023-05-19T06:32:28;5.90;;;3.20;;
15944;SDS011;30172;48.832;8.732;2023-05-19T06:34:53;4.37;;;3.10;;
15944;SDS011;30172;48.832;8.732;2023-05-19T06:37:28;7.87;;;3.13;;
15944;SDS011;30172;48.832;8.732;2023-05-19T06:39:59;7.07;;;2.73;;
15944;SDS011;30172;48.832;8.732;2023-05-19T06:42:29;6.00;;;3.10;;
15944;SDS011;30172;48.832;8.732;2023-05-19T06:44:55;5.43;;;3.40;;
15944;SDS011;30172;48.832;8.732;2023-05-19T06:47:20;4.40;;;3.00;;
15944;SDS011;30172;48.832;8.732;2023-05-19T06:49:45;9.60;;;3.70;;
15944;SDS011;30172;48.832;8.732;2023-05-19T06:52:14;6.17;;;2.90;;
15944;SDS011;30172;48.832;8.732;2023-05-19T06:54:40;7.70;;;3.03;;
15944;SDS011;30172;48.832;8.732;2023-05-19T06:57:05;6.57;;;3.10;;
15944;SDS011;30172;48.832;8.732;2023-05-19T06:59:30;6.53;;;2.70;;
15944;SDS011;30172;48.832;8.732;2023-05-19T07:02:10;9.40;;;3.10;;
15944;SDS011;30172;48.832;8.732;2023-05-19T07:04:36;7.03;;;3.00;;
15944;SDS011;30172;48.832;8.732;2023-05-19T07:07:20;8.80;;;3.47;;
15944;SDS011;30172;48.832;8.732;2023-05-19T07:10:29;6.43;;;3.63;;
15944;SDS011;30172;48.832;8.732;2023-05-19T07:26:21;9.30;;;3.63;;
15944;SDS011;30172;48.832;8.732;2023-05-19T07:55:54;9.77;;;3.57;;
15944;SDS011;30172;48.832;8.732;2023-05-19T07:58:20;6.50;;;3.70;;
15944;SDS011;30172;48.832;8.732;2023-05-19T08:00:45;8.23;;;3.97;;
15944;SDS011;30172;48.832;8.732;2023-05-19T08:03:14;7.57;;;3.80;;
15944;SDS011;30172;48.832;8.732;2023-05-19T08:05:41;11.10;;;3.90;;
15944;SDS011;30172;48.832;8.732;2023-05-19T08:08:38;7.87;;;3.87;;
15944;SDS011;30172;48.832;8.732;2023-05-19T08:11:15;10.33;;;3.70;;
15944;SDS011;30172;48.832;8.732;2023-05-19T08:27:26;7.13;;;3.70;;
15944;SDS011;30172;48.832;8.732;2023-05-19T08:29:51;10.67;;;3.60;;
15944;SDS011;30172;48.832;8.732;2023-05-19T08:32:17;7.13;;;3.47;;
15944;SDS011;30172;48.832;8.732;2023-05-19T08:51:04;6.53;;;3.57;;
15944;SDS011;30172;48.832;8.732;2023-05-19T08:53:35;7.77;;;3.53;;
15944;SDS011;30172;48.832;8.732;2023-05-19T08:56:09;6.33;;;3.20;;
15944;SDS011;30172;48.832;8.732;2023-05-19T08:58:50;8.43;;;3.90;;
15944;SDS011;30172;48.832;8.732;2023-05-19T09:01:18;9.53;;;3.57;;
15944;SDS011;30172;48.832;8.732;2023-05-19T09:03:46;7.20;;;3.57;;
15944;SDS011;30172;48.832;8.732;2023-05-19T09:06:13;6.70;;;3.10;;
15944;SDS011;30172;48.832;8.732;2023-05-19T09:08:39;10.23;;;3.90;;
15944;SDS011;30172;48.832;8.732;2023-05-19T09:11:06;6.53;;;3.60;;
15944;SDS011;30172;48.832;8.732;2023-05-19T09:13:31;11.57;;;3.47;;
15944;SDS011;30172;48.832;8.732;2023-05-19T09:16:06;6.27;;;3.30;;
15944;SDS011;30172;48.832;8.732;2023-05-19T09:18:32;9.60;;;4.23;;
15944;SDS011;30172;48.832;8.732;2023-05-19T09:21:00;7.07;;;3.13;;
15944;SDS011;30172;48.832;8.732;2023-05-19T09:23:32;7.27;;;3.53;;
15944;SDS011;30172;48.832;8.732;2023-05-19T09:26:00;7.53;;;3.57;;
15944;SDS011;30172;48.832;8.732;2023-05-19T09:28:31;8.67;;;3.97;;
15944;SDS011;30172;48.832;8.732;2023-05-19T09:30:59;12.30;;;4.13;;
15944;SDS011;30172;48.832;8.732;2023-05-19T09:33:28;6.37;;;3.17;;
15944;SDS011;30172;48.832;8.732;2023-05-19T09:35:54;8.17;;;3.70;;
15944;SDS011;30172;48.832;8.732;2023-05-19T09:38:21;8.93;;;3.30;;
15944;SDS011;30172;48.832;8.732;2023-05-19T09:40:48;6.47;;;3.27;;
15944;SDS011;30172;48.832;8.732;2023-05-19T09:43:14;9.10;;;3.33;;
15944;SDS011;30172;48.832;8.732;2023-05-19T09:45:40;7.13;;;3.53;;
15944;SDS011;30172;48.832;8.732;2023-05-19T09:48:05;7.50;;;3.40;;
15944;SDS011;30172;48.832;8.732;2023-05-19T09:50:31;7.40;;;3.33;;
15944;SDS011;30172;48.832;8.732;2023-05-19T09:52:56;4.30;;;2.80;;
15944;SDS011;30172;48.832;8.732;2023-05-19T09:55:22;17.67;;;6.90;;
15944;SDS011;30172;48.832;8.732;2023-05-19T09:57:49;8.90;;;3.53;;
15944;SDS011;30172;48.832;8.732;2023-05-19T10:00:16;7.17;;;3.27;;
15944;SDS011;30172;48.832;8.732;2023-05-19T10:02:43;7.40;;;3.60;;
15944;SDS011;30172;48.832;8.732;2023-05-19T10:05:10;7.37;;;3.57;;
15944;SDS011;30172;48.832;8.732;2023-05-19T10:07:37;5.53;;;3.23;;
15944;SDS011;30172;48.832;8.732;2023-05-19T10:28:06;7.87;;;3.90;;
15944;SDS011;30172;48.832;8.732;2023-05-19T11:10:08;5.30;;;2.65;;
15944;SDS011;30172;48.832;8.732;2023-05-19T13:17:33;7.77;;;3.57;;
15944;SDS011;30172;48.832;8.732;2023-05-19T14:44:48;7.37;;;3.67;;
15944;SDS011;30172;48.832;8.732;2023-05-19T14:47:41;6.90;;;3.90;;
15944;SDS011;30172;48.832;8.732;2023-05-19T14:50:37;6.93;;;3.73;;
15944;SDS011;30172;48.832;8.732;2023-05-19T15:10:49;6.23;;;3.87;;
15944;SDS011;30172;48.832;8.732;2023-05-19T15:22:19;7.60;;;4.00;;
15944;SDS011;30172;48.832;8.732;2023-05-19T15:24:44;7.43;;;3.30;;
15944;SDS011;30172;48.832;8.732;2023-05-19T15:27:09;7.60;;;4.23;;
15944;SDS011;30172;48.832;8.732;2023-05-19T15:29:35;9.23;;;3.97;;
15944;SDS011;30172;48.832;8.732;2023-05-19T15:32:00;10.20;;;5.67;;
15944;SDS011;30172;48.832;8.732;2023-05-19T15:34:26;7.23;;;3.77;;
15944;SDS011;30172;48.832;8.732;2023-05-19T15:36:51;6.90;;;3.70;;
15944;SDS011;30172;48.832;8.732;2023-05-19T15:39:17;10.53;;;3.77;;
15944;SDS011;30172;48.832;8.732;2023-05-19T15:41:42;5.57;;;4.03;;
15944;SDS011;30172;48.832;8.732;2023-05-19T15:44:07;6.10;;;3.73;;
15944;SDS011;30172;48.832;8.732;2023-05-19T15:46:36;10.20;;;4.30;;
15944;SDS011;30172;48.832;8.732;2023-05-19T15:52:07;7.93;;;4.30;;
15944;SDS011;30172;48.832;8.732;2023-05-19T15:54:32;6.43;;;4.00;;
15944;SDS011;30172;48.832;8.732;2023-05-19T15:57:04;12.40;;;4.00;;
15944;SDS011;30172;48.832;8.732;2023-05-19T15:59:32;8.33;;;4.30;;
15944;SDS011;30172;48.832;8.732;2023-05-19T16:01:58;9.97;;;3.57;;
15944;SDS011;30172;48.832;8.732;2023-05-19T16:04:26;7.47;;;3.93;;
15944;SDS011;30172;48.832;8.732;2023-05-19T16:06:54;8.37;;;4.37;;
15944;SDS011;30172;48.832;8.732;2023-05-19T16:09:23;6.13;;;4.00;;
15944;SDS011;30172;48.832;8.732;2023-05-19T16:11:55;8.00;;;4.03;;
15944;SDS011;30172;48.832;8.732;2023-05-19T16:14:20;6.33;;;3.50;;
15944;SDS011;30172;48.832;8.732;2023-05-19T16:16:47;8.37;;;3.60;;
15944;SDS011;30172;48.832;8.732;2023-05-19T16:19:14;6.20;;;3.57;;
15944;SDS011;30172;48.832;8.732;2023-05-19T16:21:42;6.33;;;3.50;;
15944;SDS011;30172;48.832;8.732;2023-05-19T16:24:10;6.97;;;3.70;;
15944;SDS011;30172;48.832;8.732;2023-05-19T16:26:35;5.20;;;3.30;;
15944;SDS011;30172;48.832;8.732;2023-05-19T16:29:04;6.23;;;3.97;;
15944;SDS011;30172;48.832;8.732;2023-05-19T16:31:29;8.23;;;4.20;;
15944;SDS011;30172;48.832;8.732;2023-05-19T16:33:54;6.20;;;3.30;;
15944;SDS011;30172;48.832;8.732;2023-05-19T16:36:20;7.10;;;3.83;;
15944;SDS011;30172;48.832;8.732;2023-05-19T16:38:55;7.80;;;3.20;;
15944;SDS011;30172;48.832;8.732;2023-05-19T16:41:21;4.23;;;3.47;;
15944;SDS011;30172;48.832;8.732;2023-05-19T16:43:46;7.63;;;4.23;;
15944;SDS011;30172;48.832;8.732;2023-05-19T16:46:11;10.60;;;4.20;;
15944;SDS011;30172;48.832;8.732;2023-05-19T16:48:37;6.70;;;4.20;;
15944;SDS011;30172;48.832;8.732;2023-05-19T16:51:02;8.37;;;3.77;;
15944;SDS011;30172;48.832;8.732;2023-05-19T16:53:27;8.17;;;4.33;;
15944;SDS011;30172;48.832;8.732;2023-05-19T16:55:53;4.67;;;3.77;;
15944;SDS011;30172;48.832;8.732;2023-05-19T16:58:18;6.90;;;3.63;;
15944;SDS011;30172;48.832;8.732;2023-05-19T17:00:43;5.57;;;3.70;;
15944;SDS011;30172;48.832;8.732;2023-05-19T17:03:09;4.33;;;3.03;;
15944;SDS011;30172;48.832;8.732;2023-05-19T17:05:35;4.73;;;3.20;;
15944;SDS011;30172;48.832;8.732;2023-05-19T17:08:02;5.83;;;3.60;;
15944;SDS011;30172;48.832;8.732;2023-05-19T17:10:28;9.67;;;4.27;;
15944;SDS011;30172;48.832;8.732;2023-05-19T17:12:53;7.83;;;4.07;;
15944;SDS011;30172;48.832;8.732;2023-05-19T17:15:19;4.57;;;3.40;;
15944;SDS011;30172;48.832;8.732;2023-05-19T17:17:44;7.17;;;3.60;;
15944;SDS011;30172;48.832;8.732;2023-05-19T17:20:10;7.83;;;3.30;;
15944;SDS011;30172;48.832;8.732;2023-05-19T17:22:36;4.90;;;3.37;;
15944;SDS011;30172;48.832;8.732;2023-05-19T17:25:01;6.33;;;3.07;;
15944;SDS011;30172;48.832;8.732;2023-05-19T17:27:26;6.73;;;3.17;;
15944;SDS011;30172;48.832;8.732;2023-05-19T17:29:52;6.73;;;3.60;;
15944;SDS011;30172;48.832;8.732;2023-05-19T17:32:17;6.83;;;3.50;;
15944;SDS011;30172;48.832;8.732;2023-05-19T17:34:42;7.20;;;3.37;;
15944;SDS011;30172;48.832;8.732;2023-05-19T17:37:07;4.80;;;3.60;;
15944;SDS011;30172;48.832;8.732;2023-05-19T17:39:33;3.97;;;3.40;;
15944;SDS011;30172;48.832;8.732;2023-05-19T17:41:58;3.70;;;3.20;;
15944;SDS011;30172;48.832;8.732;2023-05-19T17:44:24;6.33;;;3.80;;
15944;SDS011;30172;48.832;8.732;2023-05-19T17:46:49;7.03;;;3.67;;
15944;SDS011;30172;48.832;8.732;2023-05-19T17:49:15;10.63;;;3.87;;
15944;SDS011;30172;48.832;8.732;2023-05-19T17:51:40;7.73;;;4.23;;
15944;SDS011;30172;48.832;8.732;2023-05-19T17:54:06;10.27;;;6.87;;
15944;SDS011;30172;48.832;8.732;2023-05-19T17:56:32;10.47;;;7.03;;
15944;SDS011;30172;48.832;8.732;2023-05-19T17:58:57;9.17;;;6.10;;
15944;SDS011;30172;48.832;8.732;2023-05-19T18:01:23;10.87;;;5.83;;
15944;SDS011;30172;48.832;8.732;2023-05-19T18:03:49;10.13;;;4.53;;
15944;SDS011;30172;48.832;8.732;2023-05-19T18:06:15;4.43;;;3.93;;
15944;SDS011;30172;48.832;8.732;2023-05-19T18:08:42;4.80;;;3.60;;
15944;SDS011;30172;48.832;8.732;2023-05-19T18:11:10;4.63;;;3.40;;
15944;SDS011;30172;48.832;8.732;2023-05-19T18:13:39;8.50;;;3.80;;
15944;SDS011;30172;48.832;8.732;2023-05-19T18:16:06;6.87;;;3.87;;
15944;SDS011;30172;48.832;8.732;2023-05-19T18:18:31;8.50;;;4.27;;
15944;SDS011;30172;48.832;8.732;2023-05-19T18:20:58;6.27;;;4.67;;
15944;SDS011;30172;48.832;8.732;2023-05-19T18:23:23;6.13;;;4.20;;
15944;SDS011;30172;48.832;8.732;2023-05-19T18:25:48;6.87;;;3.83;;
15944;SDS011;30172;48.832;8.732;2023-05-19T18:28:15;6.77;;;4.00;;
15944;SDS011;30172;48.832;8.732;2023-05-19T18:30:40;6.33;;;3.70;;
15944;SDS011;30172;48.832;8.732;2023-05-19T18:33:07;5.90;;;4.23;;
15944;SDS011;30172;48.832;8.732;2023-05-19T18:35:33;20.57;;;10.67;;
15944;SDS011;30172;48.832;8.732;2023-05-19T18:37:58;16.20;;;9.80;;
15944;SDS011;30172;48.832;8.732;2023-05-19T18:40:24;6.67;;;4.40;;
15944;SDS011;30172;48.832;8.732;2023-05-19T18:42:49;11.90;;;5.60;;
15944;SDS011;30172;48.832;8.732;2023-05-19T18:45:14;10.93;;;7.73;;
15944;SDS011;30172;48.832;8.732;2023-05-19T18:47:40;11.83;;;8.17;;
15944;SDS011;30172;48.832;8.732;2023-05-19T18:50:05;52.33;;;21.43;;
15944;SDS011;30172;48.832;8.732;2023-05-19T18:52:31;103.33;;;35.80;;
15944;SDS011;30172;48.832;8.732;2023-05-19T18:54:56;211.80;;;64.93;;
15944;SDS011;30172;48.832;8.732;2023-05-19T18:57:23;162.87;;;48.23;;
15944;SDS011;30172;48.832;8.732;2023-05-19T18:59:48;171.23;;;51.03;;
15944;SDS011;30172;48.832;8.732;2023-05-19T19:02:14;180.63;;;52.57;;
15944;SDS011;30172;48.832;8.732;2023-05-19T19:04:39;151.10;;;47.30;;
15944;SDS011;30172;48.832;8.732;2023-05-19T19:07:04;108.93;;;34.20;;
15944;SDS011;30172;48.832;8.732;2023-05-19T19:09:29;57.27;;;22.07;;
15944;SDS011;30172;48.832;8.732;2023-05-19T19:11:55;27.70;;;11.67;;
15944;SDS011;30172;48.832;8.732;2023-05-19T19:14:20;11.47;;;6.03;;
15944;SDS011;30172;48.832;8.732;2023-05-19T19:16:45;13.77;;;7.00;;
15944;SDS011;30172;48.832;8.732;2023-05-19T19:19:11;9.77;;;6.03;;
15944;SDS011;30172;48.832;8.732;2023-05-19T19:21:36;9.23;;;5.70;;
15944;SDS011;30172;48.832;8.732;2023-05-19T19:24:01;7.20;;;4.90;;
15944;SDS011;30172;48.832;8.732;2023-05-19T19:26:27;6.10;;;3.97;;
15944;SDS011;30172;48.832;8.732;2023-05-19T19:28:55;8.00;;;4.73;;
15944;SDS011;30172;48.832;8.732;2023-05-19T19:31:21;6.13;;;4.13;;
15944;SDS011;30172;48.832;8.732;2023-05-19T19:33:47;5.73;;;4.17;;
15944;SDS011;30172;48.832;8.732;2023-05-19T19:36:12;5.83;;;4.17;;
15944;SDS011;30172;48.832;8.732;2023-05-19T19:38:38;8.07;;;5.07;;
15944;SDS011;30172;48.832;8.732;2023-05-19T19:41:03;8.43;;;5.67;;
15944;SDS011;30172;48.832;8.732;2023-05-19T19:43:29;9.77;;;5.50;;
15944;SDS011;30172;48.832;8.732;2023-05-19T19:45:58;10.97;;;5.73;;
15944;SDS011;30172;48.832;8.732;2023-05-19T19:48:24;8.70;;;5.70;;
15944;SDS011;30172;48.832;8.732;2023-05-19T19:50:54;6.33;;;4.80;;
15944;SDS011;30172;48.832;8.732;2023-05-19T19:53:19;8.50;;;5.27;;
15944;SDS011;30172;48.832;8.732;2023-05-19T19:55:53;6.87;;;5.43;;
15944;SDS011;30172;48.832;8.732;2023-05-19T19:58:19;8.27;;;5.23;;
15944;SDS011;30172;48.832;8.732;2023-05-19T20:00:45;5.40;;;4.77;;
15944;SDS011;30172;48.832;8.732;2023-05-19T20:03:10;8.67;;;5.50;;
15944;SDS011;30172;48.832;8.732;2023-05-19T20:05:35;6.20;;;5.17;;
15944;SDS011;30172;48.832;8.732;2023-05-19T20:08:01;7.87;;;5.30;;
15944;SDS011;30172;48.832;8.732;2023-05-19T20:10:30;6.37;;;5.00;;
15944;SDS011;30172;48.832;8.732;2023-05-19T20:12:55;7.20;;;5.20;;
15944;SDS011;30172;48.832;8.732;2023-05-19T20:15:23;8.73;;;5.10;;
15944;SDS011;30172;48.832;8.732;2023-05-19T20:17:48;6.87;;;4.80;;
15944;SDS011;30172;48.832;8.732;2023-05-19T20:20:13;6.87;;;4.60;;
15944;SDS011;30172;48.832;8.732;2023-05-19T20:22:39;7.33;;;5.40;;
15944;SDS011;30172;48.832;8.732;2023-05-19T20:25:04;9.77;;;5.43;;
15944;SDS011;30172;48.832;8.732;2023-05-19T20:27:30;7.30;;;5.40;;
15944;SDS011;30172;48.832;8.732;2023-05-19T20:29:55;9.53;;;4.90;;
15944;SDS011;30172;48.832;8.732;2023-05-19T20:32:21;6.33;;;5.40;;
15944;SDS011;30172;48.832;8.732;2023-05-19T20:34:46;7.00;;;4.70;;
15944;SDS011;30172;48.832;8.732;2023-05-19T20:37:11;8.00;;;5.17;;
15944;SDS011;30172;48.832;8.732;2023-05-19T20:39:37;8.17;;;5.23;;
15944;SDS011;30172;48.832;8.732;2023-05-19T20:42:03;6.10;;;4.40;;
15944;SDS011;30172;48.832;8.732;2023-05-19T20:44:28;5.23;;;4.63;;
15944;SDS011;30172;48.832;8.732;2023-05-19T20:46:53;7.17;;;4.60;;
15944;SDS011;30172;48.832;8.732;2023-05-19T20:49:19;6.27;;;4.90;;
15944;SDS011;30172;48.832;8.732;2023-05-19T20:51:44;8.47;;;4.57;;
15944;SDS011;30172;48.832;8.732;2023-05-19T20:54:09;7.10;;;5.50;;
15944;SDS011;30172;48.832;8.732;2023-05-19T20:56:35;12.57;;;7.10;;
15944;SDS011;30172;48.832;8.732;2023-05-19T20:59:00;7.97;;;6.07;;
15944;SDS011;30172;48.832;8.732;2023-05-19T21:01:25;8.77;;;6.40;;
15944;SDS011;30172;48.832;8.732;2023-05-19T21:03:51;6.77;;;5.03;;
15944;SDS011;30172;48.832;8.732;2023-05-19T21:06:16;9.30;;;4.70;;
15944;SDS011;30172;48.832;8.732;2023-05-19T21:08:41;5.07;;;4.57;;
15944;SDS011;30172;48.832;8.732;2023-05-19T21:11:07;6.30;;;5.63;;
15944;SDS011;30172;48.832;8.732;2023-05-19T21:13:32;8.87;;;5.27;;
15944;SDS011;30172;48.832;8.732;2023-05-19T21:15:57;6.73;;;5.50;;
15944;SDS011;30172;48.832;8.732;2023-05-19T21:18:23;7.23;;;4.67;;
15944;SDS011;30172;48.832;8.732;2023-05-19T21:20:48;7.10;;;5.27;;
15944;SDS011;30172;48.832;8.732;2023-05-19T21:23:13;7.13;;;4.67;;
15944;SDS011;30172;48.832;8.732;2023-05-19T21:25:39;9.17;;;6.17;;
15944;SDS011;30172;48.832;8.732;2023-05-19T21:28:05;8.20;;;6.90;;
15944;SDS011;30172;48.832;8.732;2023-05-19T21:30:30;10.67;;;6.70;;
15944;SDS011;30172;48.832;8.732;2023-05-19T21:32:55;9.00;;;6.77;;
15944;SDS011;30172;48.832;8.732;2023-05-19T21:35:21;7.93;;;6.20;;
15944;SDS011;30172;48.832;8.732;2023-05-19T21:37:46;11.83;;;6.80;;
15944;SDS011;30172;48.832;8.732;2023-05-19T21:40:11;9.87;;;6.90;;
15944;SDS011;30172;48.832;8.732;2023-05-19T21:42:37;12.67;;;8.50;;
15944;SDS011;30172;48.832;8.732;2023-05-19T21:45:02;13.23;;;9.17;;
15944;SDS011;30172;48.832;8.732;2023-05-19T21:47:28;15.63;;;8.43;;
15944;SDS011;30172;48.832;8.732;2023-05-19T21:49:53;13.60;;;9.17;;
15944;SDS011;30172;48.832;8.732;2023-05-19T21:52:18;12.47;;;8.73;;
15944;SDS011;30172;48.832;8.732;2023-05-19T21:54:56;10.87;;;8.47;;
15944;SDS011;30172;48.832;8.732;2023-05-19T21:57:24;11.27;;;7.83;;
15944;SDS011;30172;48.832;8.732;2023-05-19T21:59:49;12.10;;;7.33;;